createdAt,value
2023-03-25T00:00:16.939Z,60.71
2023-03-25T00:02:46.101Z,59.93
2023-03-25T00:05:17.203Z,61.76
2023-03-25T00:07:45.822Z,60.16
2023-03-25T00:10:13.922Z,60.55
2023-03-25T00:12:42.539Z,60.88
2023-03-25T00:15:12.060Z,60.64
2023-03-25T00:17:39.590Z,60.31
2023-03-25T00:20:10.063Z,60.39
2023-03-25T00:22:41.019Z,60.53
2023-03-25T00:25:11.086Z,59.58
2023-03-25T00:27:38.332Z,59.52
2023-03-25T00:30:06.494Z,59.95
2023-03-25T00:32:33.569Z,59.50
2023-03-25T00:35:00.395Z,59.70
2023-03-25T00:37:27.289Z,59.53
2023-03-25T00:39:54.147Z,60.47
2023-03-25T00:42:26.299Z,59.94
2023-03-25T00:44:54.331Z,60.27
2023-03-25T00:47:22.023Z,59.76
2023-03-25T00:49:51.631Z,60.77
2023-03-25T00:52:18.567Z,60.36
2023-03-25T00:54:45.873Z,60.41
2023-03-25T00:57:12.861Z,59.62
2023-03-25T00:59:39.992Z,60.20
2023-03-25T01:02:07.165Z,59.64
2023-03-25T01:04:41.021Z,59.10
2023-03-25T01:07:08.720Z,58.87
2023-03-25T01:09:36.120Z,58.99
2023-03-25T01:12:03.065Z,58.77
2023-03-25T01:14:29.861Z,58.13
2023-03-25T01:16:59.772Z,58.06
2023-03-25T01:19:26.796Z,58.18
2023-03-25T01:21:53.642Z,58.19
2023-03-25T01:24:20.681Z,58.13
2023-03-25T01:26:47.624Z,58.18
2023-03-25T01:29:17.876Z,58.10
2023-03-25T01:31:45.022Z,58.21
2023-03-25T01:34:13.776Z,58.24
2023-03-25T01:36:41.479Z,59.08
2023-03-25T01:39:09.139Z,59.02
2023-03-25T01:41:49.166Z,58.74
2023-03-25T01:44:19.799Z,59.00
2023-03-25T01:46:47.208Z,58.71
2023-03-25T01:49:23.946Z,59.27
2023-03-25T01:51:58.850Z,59.01
2023-03-25T01:54:27.267Z,59.34
2023-03-25T01:56:56.048Z,58.92
2023-03-25T01:59:28.193Z,58.58
2023-03-25T02:01:58.472Z,58.77
2023-03-25T02:04:44.110Z,59.90
2023-03-25T02:07:11.967Z,59.15
2023-03-25T02:09:39.543Z,58.55
2023-03-25T02:12:06.382Z,57.76
2023-03-25T02:14:36.955Z,57.88
2023-03-25T02:17:27.677Z,57.59
2023-03-25T02:20:42.869Z,57.87
2023-03-25T02:23:28.267Z,58.92
2023-03-25T02:26:07.621Z,59.22
2023-03-25T02:29:05.078Z,58.80
2023-03-25T02:32:06.010Z,58.91
2023-03-25T02:34:51.521Z,58.38
2023-03-25T02:38:06.453Z,57.15
2023-03-25T02:41:14.425Z,57.63
2023-03-25T02:44:05.851Z,58.82
2023-03-25T02:46:36.274Z,57.99
2023-03-25T02:49:09.183Z,57.62
2023-03-25T02:52:01.584Z,58.39
2023-03-25T02:54:33.434Z,57.99
2023-03-25T02:57:01.095Z,58.36
2023-03-25T02:59:33.364Z,58.53
2023-03-25T03:02:05.617Z,58.37
2023-03-25T03:04:32.442Z,59.87
2023-03-25T03:06:59.348Z,58.09
2023-03-25T03:09:45.749Z,58.12
2023-03-25T03:12:24.317Z,58.49
2023-03-25T03:15:20.975Z,57.04
2023-03-25T03:18:19.853Z,57.23
2023-03-25T03:20:55.779Z,56.79
2023-03-25T03:23:51.769Z,55.85
2023-03-25T03:26:47.479Z,56.88
2023-03-25T03:29:48.884Z,57.04
2023-03-25T03:32:29.840Z,56.95
2023-03-25T03:35:05.351Z,57.97
2023-03-25T03:37:42.033Z,57.11
2023-03-25T03:40:16.613Z,56.99
2023-03-25T03:43:03.278Z,56.76
2023-03-25T03:45:44.559Z,57.84
2023-03-25T03:48:23.522Z,57.80
2023-03-25T03:51:01.365Z,58.16
2023-03-25T03:53:34.694Z,57.37
2023-03-25T03:56:21.976Z,57.97
2023-03-25T03:58:53.223Z,58.21
2023-03-25T04:01:30.559Z,57.83
2023-03-25T04:03:59.527Z,57.89
2023-03-25T04:06:41.965Z,57.94
2023-03-25T04:09:26.972Z,58.11
2023-03-25T04:12:07.681Z,58.24
2023-03-25T04:14:34.804Z,57.86
2023-03-25T04:17:01.649Z,57.65
2023-03-25T04:19:28.535Z,58.72
2023-03-25T04:21:55.444Z,58.61
2023-03-25T04:24:22.321Z,58.56
2023-03-25T04:26:49.894Z,58.46
2023-03-25T04:29:16.871Z,58.05
2023-03-25T04:31:46.662Z,58.93
2023-03-25T04:34:14.939Z,58.85
2023-03-25T04:36:42.997Z,58.19
2023-03-25T04:39:17.666Z,58.01
2023-03-25T04:41:44.862Z,58.33
2023-03-25T04:44:12.549Z,58.11
2023-03-25T04:46:39.405Z,57.53
2023-03-25T04:49:13.840Z,57.01
2023-03-25T04:51:41.965Z,57.36
2023-03-25T04:54:08.748Z,57.43
2023-03-25T04:56:36.426Z,57.04
2023-03-25T04:59:04.259Z,56.40
2023-03-25T05:01:31.349Z,56.09
2023-03-25T05:04:05.108Z,55.98
2023-03-25T05:06:41.761Z,56.82
2023-03-25T05:09:14.331Z,57.74
2023-03-25T05:11:42.074Z,56.74
2023-03-25T05:14:11.376Z,57.12
2023-03-25T05:16:38.689Z,56.26
2023-03-25T05:19:06.920Z,56.92
2023-03-25T05:21:39.205Z,56.61
2023-03-25T05:24:10.265Z,56.17
2023-03-25T05:26:41.948Z,55.80
2023-03-25T05:29:15.493Z,56.77
2023-03-25T05:31:46.806Z,55.87
2023-03-25T05:34:16.929Z,55.92
2023-03-25T05:36:43.914Z,55.42
2023-03-25T05:39:11.020Z,55.19
2023-03-25T05:41:41.627Z,55.63
2023-03-25T05:44:10.263Z,55.14
2023-03-25T05:46:37.143Z,55.46
2023-03-25T05:49:04.049Z,54.77
2023-03-25T05:51:38.428Z,54.96
2023-03-25T05:54:11.003Z,54.73
2023-03-25T05:56:38.883Z,54.32
2023-03-25T05:59:05.885Z,54.68
2023-03-25T06:01:34.125Z,55.50
2023-03-25T06:04:02.795Z,55.46
2023-03-25T06:06:33.856Z,56.26
2023-03-25T06:09:01.052Z,55.21
2023-03-25T06:11:27.943Z,54.25
2023-03-25T06:13:54.805Z,54.29
2023-03-25T06:16:29.653Z,54.34
2023-03-25T06:18:59.716Z,54.82
2023-03-25T06:21:33.269Z,54.35
2023-03-25T06:24:01.733Z,54.18
2023-03-25T06:26:28.912Z,54.12
2023-03-25T06:28:55.837Z,53.40
2023-03-25T06:31:28.633Z,53.32
2023-03-25T06:33:56.167Z,53.17
2023-03-25T06:36:25.676Z,53.71
2023-03-25T06:38:53.609Z,53.04
2023-03-25T06:41:21.289Z,52.52
2023-03-25T06:43:49.039Z,53.93
2023-03-25T06:46:16.650Z,53.48
2023-03-25T06:48:43.542Z,53.76
2023-03-25T06:51:11.295Z,52.66
2023-03-25T06:53:38.182Z,53.58
2023-03-25T06:56:05.429Z,52.93
2023-03-25T06:58:35.106Z,52.97
2023-03-25T07:01:07.242Z,53.58
2023-03-25T07:03:36.648Z,53.32
2023-03-25T07:06:05.362Z,52.52
2023-03-25T07:08:32.887Z,53.13
2023-03-25T07:11:07.740Z,52.09
2023-03-25T07:13:35.288Z,53.47
2023-03-25T07:16:02.976Z,52.88
2023-03-25T07:18:29.906Z,52.32
2023-03-25T07:20:56.820Z,51.36
2023-03-25T07:23:23.684Z,51.33
2023-03-25T07:25:51.165Z,51.27
2023-03-25T07:28:18.640Z,51.16
2023-03-25T07:30:45.661Z,51.02
2023-03-25T07:33:12.547Z,50.93
2023-03-25T07:35:39.421Z,50.87
2023-03-25T07:38:06.260Z,51.26
2023-03-25T07:40:33.231Z,50.61
2023-03-25T07:43:00.171Z,50.41
2023-03-25T07:45:27.186Z,49.63
2023-03-25T07:47:54.159Z,50.69
2023-03-25T07:50:25.186Z,51.66
2023-03-25T07:52:53.620Z,50.62
2023-03-25T07:55:20.898Z,50.54
2023-03-25T07:57:47.739Z,50.52
2023-03-25T08:00:14.867Z,49.79
2023-03-25T08:02:41.937Z,49.90
2023-03-25T08:05:09.411Z,50.24
2023-03-25T08:07:36.209Z,50.45
2023-03-25T08:10:03.627Z,50.24
2023-03-25T08:12:30.549Z,49.79
2023-03-25T08:14:57.511Z,49.40
2023-03-25T08:17:24.350Z,49.41
2023-03-25T08:19:51.203Z,48.39
2023-03-25T08:22:18.112Z,48.14
2023-03-25T08:24:44.916Z,46.26
2023-03-25T08:27:16.306Z,46.34
2023-03-25T08:29:44.625Z,47.61
2023-03-25T08:32:11.476Z,49.08
2023-03-25T08:34:40.016Z,47.64
2023-03-25T08:37:07.953Z,48.86
2023-03-25T08:39:39.425Z,48.54
2023-03-25T08:42:08.346Z,48.53
2023-03-25T08:44:35.679Z,48.73
2023-03-25T08:47:02.531Z,47.79
2023-03-25T08:49:29.671Z,48.73
2023-03-25T08:51:59.011Z,47.41
2023-03-25T08:54:27.231Z,48.18
2023-03-25T08:56:54.800Z,47.87
2023-03-25T08:59:22.100Z,47.56
2023-03-25T09:01:48.971Z,47.88
2023-03-25T09:04:16.480Z,49.32
2023-03-25T09:06:47.831Z,48.61
2023-03-25T09:09:30.247Z,48.82
2023-03-25T09:11:57.083Z,48.37
2023-03-25T09:14:23.872Z,48.49
2023-03-25T09:16:50.756Z,48.52
2023-03-25T09:19:17.598Z,47.66
2023-03-25T09:21:44.357Z,47.87
2023-03-25T09:24:12.488Z,47.89
2023-03-25T09:26:39.508Z,49.44
2023-03-25T09:29:06.296Z,49.13
2023-03-25T09:31:33.615Z,48.87
2023-03-25T09:34:01.736Z,48.45
2023-03-25T09:36:28.533Z,47.28
2023-03-25T09:38:55.521Z,48.30
2023-03-25T09:41:43.842Z,47.23
2023-03-25T09:44:53.039Z,46.94
2023-03-25T09:47:21.720Z,48.20
2023-03-25T09:49:54.453Z,46.85
2023-03-25T09:52:29.736Z,47.34
2023-03-25T09:55:03.518Z,46.57
2023-03-25T09:57:46.275Z,47.47
2023-03-25T10:00:34.637Z,46.25
2023-03-25T10:03:43.128Z,47.95
2023-03-25T10:06:21.443Z,46.87
2023-03-25T10:09:48.324Z,48.22
2023-03-25T10:12:23.879Z,48.43
2023-03-25T10:15:01.957Z,47.10
2023-03-25T10:17:39.862Z,48.34
2023-03-25T10:20:41.450Z,47.95
2023-03-25T10:23:18.308Z,47.50
2023-03-25T10:25:50.718Z,47.63
2023-03-25T10:28:26.381Z,48.02
2023-03-25T10:30:54.977Z,48.22
2023-03-25T10:33:37.872Z,47.33
2023-03-25T10:36:10.746Z,45.06
2023-03-25T10:38:39.434Z,45.31
2023-03-25T10:41:30.887Z,43.74
2023-03-25T10:43:57.728Z,42.22
2023-03-25T10:47:01.453Z,43.57
2023-03-25T10:49:31.371Z,44.53
2023-03-25T10:51:59.509Z,44.60
2023-03-25T10:54:33.285Z,44.62
2023-03-25T10:57:03.913Z,44.37
2023-03-25T10:59:43.321Z,44.98
2023-03-25T11:02:20.639Z,43.99
2023-03-25T11:04:52.394Z,43.19
2023-03-25T11:07:36.645Z,43.27
2023-03-25T11:10:32.663Z,44.38
2023-03-25T11:13:03.944Z,42.23
2023-03-25T11:15:39.166Z,40.98
2023-03-25T11:18:16.178Z,42.14
2023-03-25T11:21:12.137Z,43.08
2023-03-25T11:23:50.792Z,44.07
2023-03-25T11:26:38.935Z,44.27
2023-03-25T11:29:15.411Z,44.48
2023-03-25T11:31:43.327Z,43.10
2023-03-25T11:34:13.157Z,42.48
2023-03-25T11:36:55.657Z,42.67
2023-03-25T11:39:40.147Z,42.05
2023-03-25T11:42:15.547Z,42.19
2023-03-25T11:44:43.477Z,42.99
2023-03-25T11:47:13.032Z,43.83
2023-03-25T11:49:41.411Z,44.33
2023-03-25T11:52:13.084Z,43.58
2023-03-25T11:54:40.561Z,43.24
2023-03-25T11:57:14.820Z,41.81
2023-03-25T11:59:49.792Z,43.48
2023-03-25T12:02:30.001Z,42.50
2023-03-25T12:05:13.210Z,42.65
2023-03-25T12:07:52.965Z,41.13
2023-03-25T12:10:34.627Z,40.30
2023-03-25T12:13:32.315Z,40.17
2023-03-25T12:16:15.879Z,38.75
2023-03-25T12:19:13.365Z,39.04
2023-03-25T12:22:12.949Z,36.68
2023-03-25T12:25:28.737Z,40.40
2023-03-25T12:28:40.481Z,38.60
2023-03-25T12:31:23.852Z,38.43
2023-03-25T12:34:22.234Z,38.82
2023-03-25T12:37:12.952Z,38.08
2023-03-25T12:40:06.627Z,38.52
2023-03-25T12:42:53.813Z,41.12
2023-03-25T12:45:49.808Z,40.38
2023-03-25T12:48:51.958Z,39.27
2023-03-25T12:51:34.080Z,40.95
2023-03-25T12:54:35.969Z,40.96
2023-03-25T12:57:26.959Z,41.44
2023-03-25T13:00:01.148Z,41.98
2023-03-25T13:02:33.809Z,40.04
2023-03-25T13:05:40.645Z,38.50
2023-03-25T13:08:10.134Z,39.27
2023-03-25T13:10:41.260Z,40.15
2023-03-25T13:13:28.736Z,40.20
2023-03-25T13:16:11.395Z,39.59
2023-03-25T13:18:46.213Z,40.62
2023-03-25T13:21:35.419Z,40.90
2023-03-25T13:24:16.785Z,42.51
2023-03-25T13:26:46.174Z,41.75
2023-03-25T13:29:31.686Z,40.99
2023-03-25T13:32:03.451Z,40.77
2023-03-25T13:34:48.577Z,39.87
2023-03-25T13:37:26.803Z,39.18
2023-03-25T13:40:37.186Z,40.33
2023-03-25T13:43:51.285Z,42.64
2023-03-25T13:46:25.787Z,41.96
2023-03-25T13:49:02.104Z,39.10
2023-03-25T13:51:29.244Z,36.50
2023-03-25T13:54:05.582Z,35.34
2023-03-25T13:57:13.889Z,35.81
2023-03-25T14:00:28.786Z,35.29
2023-03-25T14:03:11.630Z,37.81
2023-03-25T14:06:16.893Z,39.83
2023-03-25T14:08:55.805Z,39.84
2023-03-25T14:11:29.283Z,40.35
2023-03-25T14:14:02.205Z,38.90
2023-03-25T14:16:39.890Z,37.94
2023-03-25T14:19:14.758Z,38.64
2023-03-25T14:21:53.070Z,38.47
2023-03-25T14:24:36.161Z,37.40
2023-03-25T14:27:07.655Z,35.31
2023-03-25T14:29:58.797Z,34.18
2023-03-25T14:32:36.436Z,36.46
2023-03-25T14:35:31.221Z,36.85
2023-03-25T14:38:21.946Z,37.77
2023-03-25T14:41:02.994Z,37.76
2023-03-25T14:43:46.306Z,39.80
2023-03-25T14:46:14.453Z,40.34
2023-03-25T14:48:54.434Z,40.12
2023-03-25T14:51:27.425Z,36.88
2023-03-25T14:54:15.359Z,38.59
2023-03-25T14:56:53.697Z,39.52
2023-03-25T14:59:32.509Z,40.31
2023-03-25T15:02:30.012Z,40.63
2023-03-25T15:05:02.224Z,41.80
2023-03-25T15:08:04.684Z,42.99
2023-03-25T15:10:34.444Z,44.28
2023-03-25T15:13:10.454Z,45.05
2023-03-25T15:15:46.090Z,47.14
2023-03-25T15:18:36.479Z,46.50
2023-03-25T15:21:09.408Z,41.26
2023-03-25T15:23:52.651Z,42.19
2023-03-25T15:26:19.323Z,39.66
2023-03-25T15:29:05.470Z,38.20
2023-03-25T15:31:48.364Z,37.82
2023-03-25T15:34:30.277Z,37.50
2023-03-25T15:37:45.218Z,40.27
2023-03-25T15:40:42.158Z,41.11
2023-03-25T15:43:23.560Z,41.92
2023-03-25T15:46:27.116Z,44.81
2023-03-25T15:49:33.006Z,45.76
2023-03-25T15:52:31.974Z,46.10
2023-03-25T15:55:09.718Z,47.26
2023-03-25T15:57:54.577Z,47.49
2023-03-25T16:00:29.970Z,50.08
2023-03-25T16:03:21.526Z,52.09
2023-03-25T16:05:56.649Z,53.02
2023-03-25T16:08:34.358Z,54.87
2023-03-25T16:11:26.078Z,52.15
2023-03-25T16:14:17.608Z,53.55
2023-03-25T16:16:56.577Z,52.75
2023-03-25T16:19:33.427Z,51.81
2023-03-25T16:22:08.241Z,50.79
2023-03-25T16:24:36.310Z,51.59
2023-03-25T16:27:12.853Z,52.85
2023-03-25T16:29:39.848Z,54.20
2023-03-25T16:32:06.914Z,55.15
2023-03-25T16:34:37.912Z,56.26
2023-03-25T16:37:06.247Z,56.47
2023-03-25T16:39:36.265Z,57.11
2023-03-25T16:42:11.178Z,56.88
2023-03-25T16:44:38.449Z,56.62
2023-03-25T16:47:06.494Z,57.52
2023-03-25T16:49:37.288Z,56.89
2023-03-25T16:52:11.938Z,57.66
2023-03-25T16:55:07.826Z,58.85
2023-03-25T16:57:39.342Z,59.49
2023-03-25T17:00:21.215Z,59.38
2023-03-25T17:02:49.823Z,61.72
2023-03-25T17:05:24.521Z,62.91
2023-03-25T17:08:04.947Z,63.22
2023-03-25T17:10:48.713Z,62.75
2023-03-25T17:13:32.904Z,61.08
2023-03-25T17:16:00.141Z,60.76
2023-03-25T17:18:31.525Z,61.84
2023-03-25T17:21:01.441Z,61.30
2023-03-25T17:23:44.730Z,61.33
2023-03-25T17:26:15.529Z,62.13
2023-03-25T17:29:01.956Z,61.49
2023-03-25T17:31:36.372Z,61.28
2023-03-25T17:34:19.969Z,61.24
2023-03-25T17:36:49.914Z,61.40
2023-03-25T17:39:21.880Z,63.14
2023-03-25T17:42:00.470Z,62.44
2023-03-25T17:44:39.779Z,62.19
2023-03-25T17:47:11.578Z,61.50
2023-03-25T17:49:38.384Z,62.10
2023-03-25T17:52:05.236Z,61.99
2023-03-25T17:54:32.239Z,61.85
2023-03-25T17:56:59.056Z,62.32
2023-03-25T17:59:26.221Z,62.43
2023-03-25T18:01:53.503Z,63.08
2023-03-25T18:04:21.119Z,62.58
2023-03-25T18:06:48.127Z,62.70
2023-03-25T18:09:22.060Z,62.21
2023-03-25T18:11:53.391Z,63.58
2023-03-25T18:14:24.450Z,62.28
2023-03-25T18:16:52.417Z,62.01
2023-03-25T18:19:23.760Z,62.37
2023-03-25T18:21:50.876Z,62.47
2023-03-25T18:24:17.717Z,62.14
2023-03-25T18:26:45.096Z,62.56
2023-03-25T18:29:20.196Z,61.10
2023-03-25T18:31:47.924Z,61.24
2023-03-25T18:34:15.671Z,60.89
2023-03-25T18:36:43.759Z,60.14
2023-03-25T18:39:22.071Z,59.39
2023-03-25T18:41:48.943Z,58.84
2023-03-25T18:44:16.448Z,58.08
2023-03-25T18:46:43.429Z,58.21
2023-03-25T18:49:19.726Z,58.26
2023-03-25T18:51:50.211Z,58.78
2023-03-25T18:54:17.553Z,58.93
2023-03-25T18:56:45.033Z,59.08
2023-03-25T18:59:18.454Z,59.83
2023-03-25T19:01:45.805Z,59.67
2023-03-25T19:04:13.105Z,59.46
2023-03-25T19:06:40.559Z,59.23
2023-03-25T19:09:09.380Z,60.11
2023-03-25T19:11:36.293Z,61.15
2023-03-25T19:14:03.290Z,60.25
2023-03-25T19:16:30.198Z,60.31
2023-03-25T19:18:57.084Z,60.27
2023-03-25T19:21:23.880Z,60.18
2023-03-25T19:23:52.104Z,60.58
2023-03-25T19:26:19.120Z,59.38
2023-03-25T19:28:46.152Z,59.37
2023-03-25T19:31:18.588Z,60.35
2023-03-25T19:33:45.604Z,59.41
2023-03-25T19:36:18.913Z,59.74
2023-03-25T19:38:45.976Z,59.67
2023-03-25T19:41:17.943Z,59.92
2023-03-25T19:43:45.149Z,59.46
2023-03-25T19:46:12.245Z,59.48
2023-03-25T19:48:39.080Z,59.61
2023-03-25T19:51:07.045Z,60.19
2023-03-25T19:53:33.872Z,60.23
2023-03-25T19:56:05.841Z,60.02
2023-03-25T19:58:34.426Z,59.46
2023-03-25T20:01:01.488Z,59.82
2023-03-25T20:03:31.155Z,59.71
2023-03-25T20:06:00.546Z,59.40
2023-03-25T20:08:29.178Z,59.33
2023-03-25T20:10:56.297Z,60.02
2023-03-25T20:13:23.152Z,60.58
2023-03-25T20:15:50.967Z,59.84
2023-03-25T20:18:18.706Z,58.90
2023-03-25T20:20:45.852Z,60.15
2023-03-25T20:23:12.724Z,59.63
2023-03-25T20:25:39.589Z,60.20
2023-03-25T20:28:06.446Z,59.31
2023-03-25T20:30:35.396Z,59.62
2023-03-25T20:33:02.316Z,59.48
2023-03-25T20:35:30.346Z,58.80
2023-03-25T20:37:57.392Z,59.12
2023-03-25T20:40:33.760Z,58.75
2023-03-25T20:43:09.195Z,58.81
2023-03-25T20:45:36.118Z,58.49
2023-03-25T20:48:03.833Z,58.85
2023-03-25T20:50:30.694Z,58.43
2023-03-25T20:52:57.531Z,58.77
2023-03-25T20:55:24.345Z,58.26
2023-03-25T20:57:51.906Z,58.25
2023-03-25T21:00:19.492Z,58.22
2023-03-25T21:02:47.789Z,58.10
2023-03-25T21:05:14.719Z,57.75
2023-03-25T21:07:41.547Z,58.28
2023-03-25T21:10:09.147Z,58.81
2023-03-25T21:12:43.720Z,58.58
2023-03-25T21:15:14.524Z,58.08
2023-03-25T21:17:42.123Z,57.92
2023-03-25T21:20:09.988Z,57.91
2023-03-25T21:22:43.159Z,58.49
2023-03-25T21:25:11.095Z,58.31
2023-03-25T21:27:39.857Z,59.45
2023-03-25T21:30:09.517Z,58.59
2023-03-25T21:32:40.074Z,58.23
2023-03-25T21:35:08.961Z,58.61
2023-03-25T21:37:40.328Z,57.96
2023-03-25T21:40:11.228Z,57.61
2023-03-25T21:42:41.146Z,57.74
2023-03-25T21:45:13.570Z,58.04
2023-03-25T21:47:41.545Z,58.19
2023-03-25T21:50:12.012Z,57.99
2023-03-25T21:52:46.590Z,58.93
2023-03-25T21:55:16.227Z,58.31
2023-03-25T21:57:44.837Z,59.08
2023-03-25T22:00:16.248Z,58.63
2023-03-25T22:02:44.885Z,58.41
2023-03-25T22:05:16.707Z,58.49
2023-03-25T22:07:43.932Z,59.28
2023-03-25T22:10:11.631Z,58.06
2023-03-25T22:12:38.711Z,58.67
2023-03-25T22:15:06.521Z,58.44
2023-03-25T22:17:33.381Z,58.50
2023-03-25T22:20:00.342Z,58.67
2023-03-25T22:22:27.493Z,58.70
2023-03-25T22:24:54.269Z,59.03
2023-03-25T22:27:21.062Z,59.20
2023-03-25T22:29:47.901Z,59.84
2023-03-25T22:32:14.700Z,59.57
2023-03-25T22:34:42.119Z,59.40
2023-03-25T22:37:08.956Z,59.32
2023-03-25T22:39:37.763Z,60.41
2023-03-25T22:42:04.593Z,59.92
2023-03-25T22:44:31.487Z,59.70
2023-03-25T22:46:58.339Z,59.52
2023-03-25T22:49:25.871Z,59.49
2023-03-25T22:51:54.035Z,59.66
2023-03-25T22:54:21.209Z,59.73
2023-03-25T22:56:48.155Z,60.18
2023-03-25T22:59:15.443Z,60.99
2023-03-25T23:01:42.969Z,60.56
2023-03-25T23:04:10.031Z,60.57
2023-03-25T23:06:37.260Z,60.72
2023-03-25T23:09:08.161Z,60.82
2023-03-25T23:11:36.820Z,61.03
2023-03-25T23:14:08.869Z,60.97
2023-03-25T23:16:36.427Z,59.98
2023-03-25T23:19:06.155Z,60.71
2023-03-25T23:21:34.164Z,60.52
2023-03-25T23:24:03.776Z,59.73
2023-03-25T23:26:38.801Z,59.36
2023-03-25T23:29:09.296Z,59.88
2023-03-25T23:31:41.006Z,59.56
2023-03-25T23:34:11.413Z,60.24
2023-03-25T23:36:39.350Z,60.31
2023-03-25T23:39:10.734Z,60.73
2023-03-25T23:41:38.395Z,61.00
2023-03-25T23:44:06.107Z,61.44
2023-03-25T23:46:34.156Z,60.50
2023-03-25T23:49:04.284Z,59.99
2023-03-25T23:51:36.681Z,60.23
2023-03-25T23:54:06.412Z,61.43
2023-03-25T23:56:33.499Z,60.84
2023-03-25T23:59:01.532Z,61.45
